createdAt,value
2024-01-28T00:02:03.674Z,21.65
2024-01-28T00:04:31.721Z,14.73
2024-01-28T00:06:59.825Z,14.02
2024-01-28T00:09:29.295Z,14.77
2024-01-28T00:11:57.605Z,15.23
2024-01-28T00:14:25.657Z,13.50
2024-01-28T00:16:53.550Z,13.48
2024-01-28T00:19:21.568Z,11.85
2024-01-28T00:21:49.608Z,15.00
2024-01-28T00:24:19.623Z,15.98
2024-01-28T00:26:48.981Z,9.65
2024-01-28T00:29:16.926Z,10.32
2024-01-28T00:31:44.904Z,14.48
2024-01-28T00:34:13.000Z,12.25
2024-01-28T00:36:41.031Z,14.38
2024-01-28T00:39:08.999Z,8.73
2024-01-28T00:41:38.315Z,19.15
2024-01-28T00:44:08.035Z,18.10
2024-01-28T00:46:35.997Z,14.63
2024-01-28T00:49:04.823Z,10.75
2024-01-28T00:51:33.592Z,12.60
2024-01-28T00:54:02.113Z,10.07
2024-01-28T00:56:30.121Z,11.38
2024-01-28T00:58:58.133Z,11.40
2024-01-28T01:01:27.550Z,13.95
2024-01-28T01:03:55.651Z,13.77
2024-01-28T01:06:23.696Z,9.85
2024-01-28T01:08:51.751Z,8.35
2024-01-28T01:11:19.799Z,13.63
2024-01-28T01:13:47.820Z,10.02
2024-01-28T01:16:15.864Z,18.23
2024-01-28T01:18:45.555Z,13.10
2024-01-28T01:21:13.562Z,11.05
2024-01-28T01:23:41.536Z,14.70
2024-01-28T01:26:10.782Z,10.20
2024-01-28T01:28:38.837Z,12.68
2024-01-28T01:31:07.265Z,17.38
2024-01-28T01:33:35.367Z,11.80
2024-01-28T01:36:06.829Z,13.63
2024-01-28T01:38:34.866Z,9.70
2024-01-28T01:41:02.838Z,20.40
2024-01-28T01:43:31.560Z,11.00
2024-01-28T01:45:59.958Z,13.18
2024-01-28T01:48:28.339Z,13.52
2024-01-28T01:50:56.861Z,11.45
2024-01-28T01:53:26.209Z,13.02
2024-01-28T01:55:54.442Z,10.43
2024-01-28T01:58:22.443Z,16.00
2024-01-28T02:00:50.560Z,11.88
2024-01-28T02:03:18.734Z,16.35
2024-01-28T02:05:46.847Z,13.18
2024-01-28T02:08:14.816Z,10.40
2024-01-28T02:10:44.390Z,11.77
2024-01-28T02:13:12.375Z,12.13
2024-01-28T02:15:40.914Z,10.40
2024-01-28T02:18:09.211Z,9.88
2024-01-28T02:20:46.460Z,13.32
2024-01-28T02:23:18.702Z,23.75
2024-01-28T02:25:46.663Z,12.73
2024-01-28T02:28:14.647Z,12.88
2024-01-28T02:30:42.707Z,15.63
2024-01-28T02:33:11.208Z,11.80
2024-01-28T02:35:39.434Z,12.95
2024-01-28T02:38:07.579Z,11.98
2024-01-28T02:40:36.977Z,13.05
2024-01-28T02:43:06.963Z,13.07
2024-01-28T02:45:35.055Z,9.48
2024-01-28T02:48:03.158Z,13.60
2024-01-28T02:50:31.247Z,10.70
2024-01-28T02:52:59.461Z,18.27
2024-01-28T02:55:27.357Z,9.38
2024-01-28T02:57:56.756Z,14.25
2024-01-28T03:00:24.766Z,8.25
2024-01-28T03:02:52.807Z,16.33
2024-01-28T03:05:20.794Z,9.80
2024-01-28T03:07:48.775Z,10.60
2024-01-28T03:10:16.866Z,16.02
2024-01-28T03:12:44.962Z,14.23
2024-01-28T03:15:15.274Z,9.77
2024-01-28T03:17:43.331Z,9.43
2024-01-28T03:20:12.772Z,14.90
2024-01-28T03:22:40.749Z,18.05
2024-01-28T03:25:09.804Z,15.07
2024-01-28T03:27:37.828Z,11.65
2024-01-28T03:30:07.089Z,11.32
2024-01-28T03:35:04.690Z,12.18
2024-01-28T03:37:32.690Z,10.52
2024-01-28T03:40:00.626Z,11.10
2024-01-28T03:42:28.753Z,14.13
2024-01-28T03:44:56.741Z,14.18
2024-01-28T03:47:24.741Z,15.00
2024-01-28T03:49:54.064Z,10.15
2024-01-28T03:57:18.285Z,11.18
2024-01-28T03:59:46.292Z,10.77
2024-01-28T04:02:15.589Z,8.88
2024-01-28T04:04:44.023Z,9.73
2024-01-28T04:07:13.524Z,10.70
2024-01-28T04:09:41.882Z,11.32
2024-01-28T04:12:10.360Z,9.27
2024-01-28T04:14:38.305Z,9.00
2024-01-28T04:17:07.185Z,9.40
2024-01-28T04:19:35.333Z,11.27
2024-01-28T04:22:03.403Z,15.45
2024-01-28T04:24:33.068Z,8.65
2024-01-28T04:27:01.110Z,11.40
2024-01-28T04:29:29.379Z,11.75
2024-01-28T04:31:57.319Z,9.68
2024-01-28T04:34:26.014Z,19.02
2024-01-28T04:36:54.046Z,12.55
2024-01-28T04:39:22.127Z,11.82
2024-01-28T04:41:51.515Z,10.38
2024-01-28T04:44:22.072Z,15.00
2024-01-28T04:46:51.144Z,9.20
2024-01-28T04:49:19.199Z,12.43
2024-01-28T04:51:47.293Z,10.43
2024-01-28T04:54:16.036Z,14.52
2024-01-28T04:56:44.312Z,9.55
2024-01-28T04:59:13.630Z,10.85
2024-01-28T05:04:09.718Z,11.93
2024-01-28T05:06:38.024Z,10.75
2024-01-28T05:09:07.717Z,7.68
2024-01-28T05:11:36.329Z,8.68
2024-01-28T05:14:05.479Z,9.07
2024-01-28T05:16:35.121Z,12.52
2024-01-28T05:19:03.884Z,11.70
2024-01-28T05:21:32.162Z,9.45
2024-01-28T05:24:01.606Z,7.65
2024-01-28T05:26:29.614Z,7.22
2024-01-28T05:28:58.904Z,6.90
2024-01-28T05:33:56.110Z,10.77
2024-01-28T05:36:24.175Z,16.60
2024-01-28T05:38:52.117Z,11.80
2024-01-28T05:41:20.099Z,12.77
2024-01-28T05:43:48.580Z,8.90
2024-01-28T05:46:16.621Z,12.13
2024-01-28T05:48:44.886Z,6.40
2024-01-28T05:51:14.381Z,12.30
2024-01-28T05:53:42.564Z,10.30
2024-01-28T05:56:11.108Z,9.52
2024-01-28T05:58:39.102Z,13.73
2024-01-28T06:01:09.774Z,6.07
2024-01-28T06:03:38.773Z,7.25
2024-01-28T06:06:07.165Z,9.02
2024-01-28T06:08:36.707Z,8.73
2024-01-28T06:11:04.740Z,6.70
2024-01-28T06:13:32.874Z,7.97
2024-01-28T06:16:01.565Z,18.15
2024-01-28T06:18:29.580Z,10.68
2024-01-28T06:20:57.550Z,13.23
2024-01-28T06:23:25.459Z,8.50
2024-01-28T06:25:54.744Z,8.43
2024-01-28T06:35:46.418Z,4.55
2024-01-28T06:38:14.593Z,4.97
2024-01-28T06:40:42.577Z,7.50
2024-01-28T06:43:13.122Z,12.20
2024-01-28T06:45:42.176Z,8.27
2024-01-28T06:48:10.204Z,8.70
2024-01-28T06:50:38.203Z,7.57
2024-01-28T06:53:06.441Z,10.90
2024-01-28T06:55:34.479Z,7.22
2024-01-28T06:58:02.601Z,12.15
2024-01-28T07:00:32.053Z,8.02
2024-01-28T07:03:00.230Z,9.02
2024-01-28T07:05:29.619Z,10.98
2024-01-28T07:07:57.646Z,8.27
2024-01-28T07:10:28.345Z,6.32
2024-01-28T07:12:57.414Z,9.35
2024-01-28T07:15:25.568Z,13.88
2024-01-28T07:17:54.942Z,8.05
2024-01-28T07:20:23.003Z,15.70
2024-01-28T07:22:50.972Z,7.55
2024-01-28T07:25:18.961Z,10.73
2024-01-28T07:27:47.941Z,7.95
2024-01-28T07:30:16.591Z,7.57
2024-01-28T07:32:45.966Z,10.30
2024-01-28T07:35:16.934Z,4.90
2024-01-28T07:37:44.997Z,7.70
2024-01-28T07:40:13.484Z,9.23
2024-01-28T07:42:41.716Z,5.00
2024-01-28T07:45:11.497Z,8.38
2024-01-28T07:47:43.106Z,8.48
2024-01-28T07:50:12.806Z,4.70
2024-01-28T07:55:13.358Z,10.45
2024-01-28T07:57:41.442Z,8.05
2024-01-28T08:00:12.273Z,9.40
2024-01-28T08:02:41.151Z,9.05
2024-01-28T08:05:09.754Z,8.70
2024-01-28T08:07:37.784Z,8.05
2024-01-28T08:10:08.404Z,8.63
2024-01-28T08:12:36.496Z,9.45
2024-01-28T08:15:04.987Z,11.57
2024-01-28T08:17:32.960Z,8.43
2024-01-28T08:20:00.977Z,10.25
2024-01-28T08:22:28.914Z,5.13
2024-01-28T08:24:57.008Z,8.63
2024-01-28T08:27:26.464Z,9.82
2024-01-28T08:29:54.437Z,9.70
2024-01-28T08:32:22.398Z,9.93
2024-01-28T08:34:52.484Z,7.47
2024-01-28T08:37:22.726Z,7.15
2024-01-28T08:39:50.975Z,8.68
2024-01-28T08:42:20.345Z,7.32
2024-01-28T08:44:49.933Z,5.97
2024-01-28T08:47:17.941Z,4.95
2024-01-28T08:49:46.112Z,9.32
2024-01-28T08:52:14.134Z,11.80
2024-01-28T08:54:45.531Z,4.75
2024-01-28T08:57:14.325Z,10.85
2024-01-28T08:59:42.343Z,11.68
2024-01-28T09:02:11.651Z,11.93
2024-01-28T09:04:39.860Z,7.25
2024-01-28T09:07:08.079Z,8.70
2024-01-28T09:09:36.160Z,6.53
2024-01-28T09:12:04.613Z,7.55
2024-01-28T09:14:32.586Z,8.27
2024-01-28T09:17:00.554Z,7.15
2024-01-28T09:19:29.898Z,9.90
2024-01-28T09:21:57.975Z,5.63
2024-01-28T09:24:25.987Z,8.55
2024-01-28T09:26:53.996Z,6.88
2024-01-28T09:29:21.996Z,5.10
2024-01-28T09:31:50.182Z,4.43
2024-01-28T09:34:19.024Z,5.68
2024-01-28T09:36:48.468Z,6.65
2024-01-28T09:39:16.607Z,6.80
2024-01-28T09:41:50.093Z,6.43
2024-01-28T09:44:18.293Z,5.13
2024-01-28T09:46:46.816Z,4.53
2024-01-28T09:49:17.746Z,3.80
2024-01-28T09:51:46.399Z,6.72
2024-01-28T09:54:15.849Z,4.85
2024-01-28T09:56:46.188Z,10.30
2024-01-28T09:59:16.743Z,5.88
2024-01-28T10:01:45.634Z,6.05
2024-01-28T10:04:15.449Z,3.72
2024-01-28T10:06:43.523Z,4.78
2024-01-28T10:09:11.802Z,5.93
2024-01-28T10:11:41.627Z,5.38
2024-01-28T10:14:11.629Z,9.70
2024-01-28T10:16:39.907Z,6.30
2024-01-28T10:19:08.016Z,7.30
2024-01-28T10:21:36.577Z,6.03
2024-01-28T10:24:04.642Z,1.88
2024-01-28T10:26:34.975Z,6.50
2024-01-28T10:29:07.932Z,5.10
2024-01-28T10:31:35.947Z,3.75
2024-01-28T10:34:04.210Z,5.25
2024-01-28T10:36:35.777Z,5.63
2024-01-28T10:39:06.181Z,7.57
2024-01-28T10:41:34.952Z,8.50
2024-01-28T10:44:09.523Z,6.97
2024-01-28T10:46:39.693Z,6.82
2024-01-28T10:49:08.992Z,5.22
2024-01-28T10:51:38.732Z,5.53
2024-01-28T10:54:08.568Z,5.07
2024-01-28T10:56:38.027Z,6.93
2024-01-28T10:59:06.121Z,6.03
2024-01-28T11:01:36.996Z,4.25
2024-01-28T11:04:06.767Z,4.72
2024-01-28T11:06:35.020Z,5.57
2024-01-28T11:09:04.450Z,3.42
2024-01-28T11:11:32.507Z,7.50
2024-01-28T11:14:00.488Z,4.07
2024-01-28T11:16:31.925Z,4.18
2024-01-28T11:19:08.712Z,5.35
2024-01-28T11:21:39.512Z,7.00
2024-01-28T11:24:08.233Z,4.78
2024-01-28T11:26:41.086Z,5.20
2024-01-28T11:29:11.286Z,5.13
2024-01-28T11:31:42.295Z,7.40
2024-01-28T11:34:22.412Z,6.35
2024-01-28T11:36:52.897Z,5.75
2024-01-28T11:39:34.834Z,5.82
2024-01-28T11:42:03.779Z,5.85
2024-01-28T11:44:40.648Z,4.22
2024-01-28T11:47:12.449Z,6.93
2024-01-28T11:49:44.018Z,4.10
2024-01-28T11:52:12.716Z,5.95
2024-01-28T11:54:44.528Z,3.78
2024-01-28T11:57:12.855Z,10.32
2024-01-28T11:59:40.908Z,3.50
2024-01-28T12:02:10.309Z,5.85
2024-01-28T12:04:42.561Z,8.05
2024-01-28T12:07:10.700Z,8.20
2024-01-28T12:09:39.847Z,13.65
2024-01-28T12:12:09.327Z,4.68
2024-01-28T12:14:37.454Z,6.82
2024-01-28T12:17:05.994Z,4.55
2024-01-28T12:19:34.127Z,6.68
2024-01-28T12:22:03.534Z,4.88
2024-01-28T12:24:32.285Z,5.88
2024-01-28T12:27:00.557Z,3.95
2024-01-28T12:29:28.669Z,4.88
2024-01-28T12:31:56.892Z,6.63
2024-01-28T12:34:28.425Z,7.85
2024-01-28T12:36:56.529Z,5.97
2024-01-28T12:39:26.083Z,5.80
2024-01-28T12:41:54.200Z,5.97
2024-01-28T12:44:22.161Z,7.68
2024-01-28T12:46:50.167Z,3.60
2024-01-28T12:49:18.230Z,6.55
2024-01-28T12:51:46.313Z,6.90
2024-01-28T12:54:15.064Z,5.05
2024-01-28T12:56:44.403Z,6.70
2024-01-28T12:59:12.404Z,6.10
2024-01-28T13:01:40.499Z,8.52
2024-01-28T13:04:08.737Z,3.55
2024-01-28T13:06:36.863Z,5.18
2024-01-28T13:09:10.246Z,5.22
2024-01-28T13:11:38.271Z,6.20
2024-01-28T13:14:07.710Z,9.10
2024-01-28T13:16:37.669Z,6.75
2024-01-28T13:19:05.992Z,6.70
2024-01-28T13:21:34.097Z,5.43
2024-01-28T13:24:03.223Z,3.95
2024-01-28T13:26:30.246Z,6.50
2024-01-28T13:28:58.245Z,3.83
2024-01-28T13:31:28.051Z,5.97
2024-01-28T13:33:56.212Z,3.70
2024-01-28T13:36:24.489Z,4.05
2024-01-28T13:38:52.541Z,7.82
2024-01-28T13:41:20.468Z,7.88
2024-01-28T13:43:49.490Z,5.95
2024-01-28T13:46:17.678Z,7.35
2024-01-28T13:48:47.122Z,6.00
2024-01-28T13:51:15.226Z,4.20
2024-01-28T13:53:43.194Z,4.55
2024-01-28T13:56:11.187Z,8.43
2024-01-28T13:58:39.224Z,5.07
2024-01-28T14:01:07.332Z,8.15
2024-01-28T14:03:35.880Z,6.22
2024-01-28T14:06:06.237Z,3.35
2024-01-28T14:08:34.302Z,8.70
2024-01-28T14:11:02.261Z,7.85
2024-01-28T14:13:30.188Z,5.95
2024-01-28T14:15:58.227Z,8.30
2024-01-28T14:18:26.311Z,6.45
2024-01-28T14:20:54.363Z,3.17
2024-01-28T14:23:23.718Z,7.07
2024-01-28T14:25:52.148Z,6.38
2024-01-28T14:28:20.094Z,5.03
2024-01-28T14:30:48.138Z,5.40
2024-01-28T14:33:16.331Z,5.03
2024-01-28T14:35:44.449Z,4.78
2024-01-28T14:38:12.482Z,8.85
2024-01-28T14:40:41.822Z,4.47
2024-01-28T14:43:09.838Z,7.50
2024-01-28T14:45:37.992Z,6.13
2024-01-28T14:48:06.804Z,5.45
2024-01-28T14:50:37.892Z,5.30
2024-01-28T14:53:05.921Z,4.95
2024-01-28T14:55:34.113Z,4.93
2024-01-28T14:58:03.585Z,8.27
2024-01-28T15:00:31.596Z,6.95
2024-01-28T15:02:59.696Z,6.35
2024-01-28T15:05:27.657Z,7.25
2024-01-28T15:07:56.037Z,4.80
2024-01-28T15:10:25.120Z,7.53
2024-01-28T15:12:53.225Z,7.10
2024-01-28T15:15:22.633Z,5.10
2024-01-28T15:17:52.686Z,4.45
2024-01-28T15:20:22.097Z,5.78
2024-01-28T15:22:50.481Z,9.60
2024-01-28T15:25:19.558Z,3.72
2024-01-28T15:27:47.744Z,8.30
2024-01-28T15:30:16.357Z,6.75
2024-01-28T15:32:47.170Z,6.50
2024-01-28T15:35:15.387Z,7.00
2024-01-28T15:37:43.377Z,6.88
2024-01-28T15:40:13.001Z,5.80
2024-01-28T15:42:41.564Z,6.65
2024-01-28T15:45:10.780Z,5.63
2024-01-28T15:47:39.042Z,4.18
2024-01-28T15:50:09.883Z,7.50
2024-01-28T15:52:37.877Z,9.40
2024-01-28T15:55:06.549Z,6.88
2024-01-28T15:57:34.636Z,8.88
2024-01-28T16:00:07.365Z,9.15
2024-01-28T16:02:36.312Z,5.43
2024-01-28T16:05:04.455Z,7.10
2024-01-28T16:07:34.125Z,10.15
2024-01-28T16:10:02.198Z,7.00
2024-01-28T16:12:30.443Z,7.70
2024-01-28T16:14:58.505Z,7.85
2024-01-28T16:17:27.759Z,10.27
2024-01-28T16:19:55.958Z,14.38
2024-01-28T16:22:24.131Z,14.70
2024-01-28T16:24:53.676Z,8.65
2024-01-28T16:27:21.683Z,8.02
2024-01-28T16:29:49.684Z,10.20
2024-01-28T16:32:17.653Z,9.38
2024-01-28T16:34:47.058Z,7.35
2024-01-28T16:37:15.274Z,14.55
2024-01-28T16:39:43.272Z,9.45
2024-01-28T16:42:12.585Z,9.57
2024-01-28T16:44:40.517Z,11.45
2024-01-28T16:47:10.347Z,10.50
2024-01-28T16:49:38.550Z,9.50
2024-01-28T16:52:06.872Z,8.20
2024-01-28T16:54:34.831Z,8.45
2024-01-28T16:57:02.845Z,11.43
2024-01-28T16:59:32.668Z,12.30
2024-01-28T17:02:00.703Z,8.80
2024-01-28T17:04:28.676Z,9.77
2024-01-28T17:06:57.732Z,8.82
2024-01-28T17:09:25.813Z,12.00
2024-01-28T17:11:54.423Z,10.38
2024-01-28T17:14:24.786Z,10.45
2024-01-28T17:16:54.191Z,9.95
2024-01-28T17:19:22.145Z,6.65
2024-01-28T17:21:50.279Z,17.13
2024-01-28T17:24:19.472Z,11.52
2024-01-28T17:26:47.518Z,10.25
2024-01-28T17:29:15.527Z,12.52
2024-01-28T17:31:43.473Z,13.57
2024-01-28T17:34:13.704Z,12.02
2024-01-28T17:36:42.043Z,9.32
2024-01-28T17:39:10.892Z,11.57
2024-01-28T17:41:39.689Z,13.90
2024-01-28T17:44:07.909Z,11.88
2024-01-28T17:46:35.950Z,14.90
2024-01-28T17:49:05.129Z,15.55
2024-01-28T17:51:34.741Z,18.90
2024-01-28T17:54:02.909Z,14.02
2024-01-28T17:56:30.919Z,14.00
2024-01-28T17:58:58.893Z,9.65
2024-01-28T18:01:28.567Z,11.88
2024-01-28T18:03:56.662Z,20.48
2024-01-28T18:06:25.954Z,9.55
2024-01-28T18:08:55.316Z,12.32
2024-01-28T18:11:23.277Z,10.93
2024-01-28T18:13:51.275Z,11.20
2024-01-28T18:16:19.815Z,11.95
2024-01-28T18:18:49.213Z,14.73
2024-01-28T18:21:17.489Z,7.75
2024-01-28T18:23:45.525Z,10.38
2024-01-28T18:26:14.997Z,9.80
2024-01-28T18:28:42.999Z,14.98
2024-01-28T18:31:10.920Z,13.63
2024-01-28T18:33:39.241Z,11.00
2024-01-28T18:36:08.171Z,11.57
2024-01-28T18:38:35.260Z,9.63
2024-01-28T18:41:05.923Z,10.85
2024-01-28T18:43:35.269Z,13.10
2024-01-28T18:46:03.762Z,15.57
2024-01-28T18:48:33.351Z,11.05
2024-01-28T18:51:01.463Z,12.98
2024-01-28T18:53:29.780Z,13.32
2024-01-28T18:55:57.818Z,11.40
2024-01-28T18:58:26.160Z,12.77
2024-01-28T19:00:55.627Z,10.18
2024-01-28T19:03:23.836Z,10.98
2024-01-28T19:05:52.011Z,9.98
2024-01-28T19:08:20.364Z,13.55
2024-01-28T19:10:48.337Z,10.68
2024-01-28T19:13:16.328Z,11.70
2024-01-28T19:15:47.216Z,14.43
2024-01-28T19:18:16.988Z,9.55
2024-01-28T19:20:45.774Z,12.38
2024-01-28T19:23:14.000Z,12.73
2024-01-28T19:25:42.671Z,9.90
2024-01-28T19:28:10.643Z,11.27
2024-01-28T19:30:38.852Z,13.60
2024-01-28T19:33:07.666Z,9.20
2024-01-28T19:35:40.703Z,15.23
2024-01-28T19:38:08.700Z,11.82
2024-01-28T19:40:36.690Z,9.70
2024-01-28T19:43:05.022Z,8.25
2024-01-28T19:45:33.058Z,8.50
2024-01-28T19:48:01.174Z,7.35
2024-01-28T19:50:29.346Z,7.30
2024-01-28T19:52:58.616Z,9.63
2024-01-28T19:55:26.641Z,8.07
2024-01-28T19:57:54.754Z,7.75
2024-01-28T20:00:23.041Z,8.20
2024-01-28T20:02:51.487Z,6.63
2024-01-28T20:05:19.787Z,9.20
2024-01-28T20:07:47.833Z,9.98
2024-01-28T20:10:18.742Z,15.15
2024-01-28T20:12:46.968Z,16.23
2024-01-28T20:15:15.118Z,12.15
2024-01-28T20:17:43.114Z,11.35
2024-01-28T20:20:13.219Z,14.73
2024-01-28T20:22:41.580Z,9.30
2024-01-28T20:25:10.420Z,9.07
2024-01-28T20:27:40.489Z,9.85
2024-01-28T20:30:09.546Z,11.90
2024-01-28T20:35:06.826Z,14.27
2024-01-28T20:37:34.874Z,9.00
2024-01-28T20:40:02.989Z,10.07
2024-01-28T20:42:31.043Z,10.35
2024-01-28T20:45:00.415Z,9.10
2024-01-28T20:47:28.458Z,12.38
2024-01-28T20:49:56.537Z,13.52
2024-01-28T20:52:24.573Z,9.27
2024-01-28T20:54:52.650Z,8.88
2024-01-28T20:57:21.056Z,10.82
2024-01-28T20:59:49.068Z,15.93
2024-01-28T21:02:18.411Z,9.30
2024-01-28T21:04:46.560Z,10.90
2024-01-28T21:07:15.092Z,10.60
2024-01-28T21:09:43.284Z,11.07
2024-01-28T21:12:11.607Z,11.60
2024-01-28T21:14:39.682Z,13.70
2024-01-28T21:17:07.718Z,12.77
2024-01-28T21:19:37.796Z,14.68
2024-01-28T21:22:06.210Z,14.85
2024-01-28T21:24:34.428Z,12.15
2024-01-28T21:27:02.423Z,15.60
2024-01-28T21:29:33.257Z,20.73
2024-01-28T21:32:01.512Z,15.15
2024-01-28T21:34:30.449Z,13.77
2024-01-28T21:39:28.059Z,14.93
2024-01-28T21:41:56.686Z,18.17
2024-01-28T21:44:26.034Z,15.95
2024-01-28T21:46:54.948Z,17.98
2024-01-28T21:49:23.664Z,14.82
2024-01-28T21:51:51.957Z,17.63
2024-01-28T21:54:21.325Z,15.00
2024-01-28T21:56:49.306Z,22.88
2024-01-28T21:59:17.272Z,14.30
2024-01-28T22:01:45.270Z,21.33
2024-01-28T22:04:13.431Z,20.35
2024-01-28T22:06:41.607Z,14.10
2024-01-28T22:09:09.654Z,18.27
2024-01-28T22:11:40.723Z,11.60
2024-01-28T22:14:08.873Z,13.90
2024-01-28T22:16:36.847Z,14.98
2024-01-28T22:19:05.765Z,16.00
2024-01-28T22:24:02.095Z,13.13
2024-01-28T22:26:30.087Z,12.40
2024-01-28T22:28:59.494Z,14.38
2024-01-28T22:31:28.523Z,12.23
2024-01-28T22:36:25.767Z,13.13
2024-01-28T22:38:53.926Z,13.20
2024-01-28T22:41:21.921Z,10.52
2024-01-28T22:43:49.974Z,16.83
2024-01-28T22:46:19.541Z,12.85
2024-01-28T22:48:47.851Z,14.77
2024-01-28T22:51:15.980Z,10.32
2024-01-28T22:53:43.962Z,10.05
2024-01-28T22:56:12.855Z,15.70
2024-01-28T22:58:39.870Z,16.13
2024-01-28T23:01:10.952Z,12.68
2024-01-28T23:03:40.470Z,14.07
2024-01-28T23:06:11.231Z,10.25
2024-01-28T23:08:39.274Z,10.52
2024-01-28T23:11:07.944Z,13.35
2024-01-28T23:13:36.828Z,11.43
2024-01-28T23:16:05.528Z,8.50
2024-01-28T23:18:33.809Z,8.82
2024-01-28T23:21:03.774Z,10.85
2024-01-28T23:23:31.893Z,10.63
2024-01-28T23:25:59.867Z,12.32
2024-01-28T23:28:27.851Z,11.60
2024-01-28T23:30:56.530Z,9.02
2024-01-28T23:33:24.708Z,8.52
2024-01-28T23:35:52.759Z,7.57
2024-01-28T23:38:22.114Z,10.25
2024-01-28T23:40:50.860Z,9.35
2024-01-28T23:43:19.345Z,8.73
2024-01-28T23:45:47.322Z,9.63
2024-01-28T23:48:15.388Z,8.88
2024-01-28T23:50:43.564Z,6.97
2024-01-28T23:53:11.565Z,10.98
2024-01-28T23:55:40.869Z,10.13
2024-01-28T23:58:08.833Z,8.23
